createdAt,value
2023-02-02T00:00:07.033Z,0.47
2023-02-02T00:03:40.942Z,0.40
2023-02-02T00:07:12.737Z,0.63
2023-02-02T00:10:45.505Z,1.15
2023-02-02T00:14:18.816Z,0.50
2023-02-02T00:17:54.259Z,0.93
2023-02-02T00:21:26.825Z,0.50
2023-02-02T00:24:59.278Z,0.53
2023-02-02T00:28:31.538Z,1.40
2023-02-02T00:32:03.381Z,0.10
2023-02-02T00:35:35.683Z,0.33
2023-02-02T00:39:08.276Z,1.33
2023-02-02T00:42:40.813Z,0.63
2023-02-02T00:46:18.769Z,0.55
2023-02-02T00:49:50.964Z,0.10
2023-02-02T00:53:22.981Z,0.20
2023-02-02T00:56:55.245Z,0.52
2023-02-02T01:00:27.737Z,0.50
2023-02-02T01:04:00.043Z,0.73
2023-02-02T01:07:31.873Z,0.88
2023-02-02T01:11:05.204Z,1.30
2023-02-02T01:14:37.150Z,0.38
2023-02-02T01:18:09.193Z,0.60
2023-02-02T01:21:41.638Z,0.65
2023-02-02T01:25:14.501Z,0.87
2023-02-02T01:28:46.653Z,0.20
2023-02-02T01:32:19.102Z,0.68
2023-02-02T01:35:53.280Z,0.53
2023-02-02T01:39:25.514Z,0.40
2023-02-02T01:42:57.431Z,0.30
2023-02-02T01:46:32.395Z,0.30
2023-02-02T01:50:06.567Z,0.75
2023-02-02T01:53:38.890Z,0.43
2023-02-02T01:57:36.905Z,0.40
2023-02-02T02:01:09.087Z,0.23
2023-02-02T02:04:42.532Z,0.32
2023-02-02T02:08:24.363Z,0.30
2023-02-02T02:11:56.475Z,0.40
2023-02-02T02:15:52.949Z,0.10
2023-02-02T02:20:21.857Z,0.68
2023-02-02T02:24:58.239Z,0.63
2023-02-02T02:28:43.564Z,0.30
2023-02-02T02:32:15.411Z,0.40
2023-02-02T02:35:56.042Z,0.25
2023-02-02T02:39:39.573Z,0.60
2023-02-02T02:43:27.311Z,0.45
2023-02-02T02:46:59.307Z,0.20
2023-02-02T02:50:31.593Z,0.20
2023-02-02T02:54:04.368Z,0.70
2023-02-02T02:57:42.094Z,0.20
2023-02-02T03:01:26.211Z,0.80
2023-02-02T03:05:12.992Z,0.40
2023-02-02T03:09:00.864Z,0.38
2023-02-02T03:12:33.128Z,0.25
2023-02-02T03:16:05.667Z,0.43
2023-02-02T03:19:37.545Z,0.38
2023-02-02T03:23:10.148Z,0.20
2023-02-02T03:26:42.046Z,0.50
2023-02-02T03:30:14.582Z,0.70
2023-02-02T03:33:46.794Z,0.43
2023-02-02T03:37:19.567Z,0.30
2023-02-02T03:40:51.853Z,0.10
2023-02-02T03:44:24.081Z,0.28
2023-02-02T03:47:56.416Z,0.28
2023-02-02T03:51:28.774Z,0.40
2023-02-02T03:55:00.633Z,0.10
2023-02-02T03:58:33.689Z,0.40
2023-02-02T04:02:05.597Z,0.60
2023-02-02T04:05:37.883Z,0.50
2023-02-02T04:09:09.845Z,0.40
2023-02-02T04:12:42.113Z,0.37
2023-02-02T04:16:14.234Z,0.47
2023-02-02T04:19:46.777Z,0.20
2023-02-02T04:23:20.984Z,0.17
2023-02-02T04:26:53.541Z,0.20
2023-02-02T04:30:25.330Z,0.20
2023-02-02T04:33:58.038Z,0.20
2023-02-02T04:37:32.076Z,0.27
2023-02-02T04:41:09.924Z,0.20
2023-02-02T04:44:41.850Z,0.20
2023-02-02T04:48:14.300Z,0.20
2023-02-02T04:51:46.300Z,0.20
2023-02-02T04:55:20.800Z,0.20
2023-02-02T04:58:54.448Z,0.20
2023-02-02T05:02:26.737Z,0.20
2023-02-02T05:06:03.214Z,0.10
2023-02-02T05:09:36.023Z,0.30
2023-02-02T05:13:09.553Z,0.20
2023-02-02T05:16:41.949Z,0.28
2023-02-02T05:20:17.262Z,0.10
2023-02-02T05:23:49.424Z,0.10
2023-02-02T05:27:22.001Z,0.08
2023-02-02T05:30:54.004Z,0.10
2023-02-02T05:34:26.715Z,0.10
2023-02-02T05:37:59.353Z,0.20
2023-02-02T05:41:31.845Z,0.20
2023-02-02T05:45:07.533Z,0.10
2023-02-02T05:48:39.837Z,0.20
2023-02-02T05:52:18.260Z,0.38
2023-02-02T05:55:53.537Z,0.20
2023-02-02T05:59:31.580Z,0.10
2023-02-02T06:03:06.666Z,0.17
2023-02-02T06:06:39.358Z,0.30
2023-02-02T06:10:11.879Z,0.25
2023-02-02T06:13:46.053Z,0.40
2023-02-02T06:17:18.387Z,0.55
2023-02-02T06:20:57.532Z,0.15
2023-02-02T06:24:29.694Z,0.47
2023-02-02T06:28:02.020Z,0.47
2023-02-02T06:31:34.337Z,0.20
2023-02-02T06:35:07.666Z,0.40
2023-02-02T06:38:39.548Z,0.38
2023-02-02T06:42:20.849Z,0.47
2023-02-02T06:45:55.799Z,0.45
2023-02-02T06:49:27.544Z,0.40
2023-02-02T06:52:59.618Z,0.30
2023-02-02T06:56:31.471Z,0.40
2023-02-02T07:00:04.543Z,0.60
2023-02-02T07:03:37.041Z,0.35
2023-02-02T07:07:09.435Z,0.30
2023-02-02T07:11:13.276Z,0.30
2023-02-02T07:14:34.851Z,0.45
2023-02-02T07:18:07.418Z,0.40
2023-02-02T07:21:39.198Z,0.80
2023-02-02T07:25:12.090Z,0.30
2023-02-02T07:28:44.727Z,0.70
2023-02-02T07:32:16.848Z,0.40
2023-02-02T07:35:50.965Z,0.60
2023-02-02T07:39:22.940Z,1.80
2023-02-02T07:42:55.237Z,0.65
2023-02-02T07:46:28.403Z,0.97
2023-02-02T07:50:01.011Z,0.80
2023-02-02T07:53:34.466Z,0.47
2023-02-02T07:57:06.604Z,1.42
2023-02-02T08:00:38.807Z,0.70
2023-02-02T08:04:11.987Z,0.70
2023-02-02T08:07:44.847Z,0.80
2023-02-02T08:11:19.595Z,0.47
2023-02-02T08:14:52.471Z,0.73
2023-02-02T08:18:26.428Z,0.85
2023-02-02T08:22:00.453Z,0.50
2023-02-02T08:25:32.715Z,0.32
2023-02-02T08:29:08.010Z,0.75
2023-02-02T08:32:40.489Z,0.82
2023-02-02T08:36:13.750Z,0.67
2023-02-02T08:39:45.896Z,0.60
2023-02-02T08:43:18.799Z,0.40
2023-02-02T08:46:50.897Z,0.53
2023-02-02T08:50:27.161Z,0.73
2023-02-02T08:53:58.980Z,0.55
2023-02-02T08:57:33.542Z,0.40
2023-02-02T09:01:24.967Z,0.20
2023-02-02T09:04:57.057Z,0.20
2023-02-02T09:08:29.306Z,0.30
2023-02-02T09:12:01.486Z,0.27
2023-02-02T09:15:33.549Z,0.40
2023-02-02T09:19:05.776Z,0.30
2023-02-02T09:22:37.965Z,0.40
2023-02-02T09:26:20.162Z,0.30
2023-02-02T09:29:54.412Z,0.38
2023-02-02T09:33:26.423Z,0.40
2023-02-02T09:36:58.263Z,0.20
2023-02-02T09:40:33.946Z,0.85
2023-02-02T09:44:29.823Z,0.30
2023-02-02T09:48:36.458Z,0.30
2023-02-02T09:52:23.959Z,0.50
2023-02-02T09:56:00.493Z,0.20
2023-02-02T09:59:39.682Z,0.40
2023-02-02T10:03:25.424Z,0.43
2023-02-02T10:07:04.504Z,0.13
2023-02-02T10:10:43.479Z,0.40
2023-02-02T10:14:21.766Z,0.10
2023-02-02T10:18:13.563Z,0.47
2023-02-02T10:21:57.817Z,0.30
2023-02-02T10:25:29.917Z,0.60
2023-02-02T10:29:27.227Z,0.55
2023-02-02T10:33:16.567Z,0.30
2023-02-02T10:36:56.676Z,0.30
2023-02-02T10:40:43.664Z,0.22
2023-02-02T10:44:50.804Z,0.40
2023-02-02T10:48:32.819Z,0.20
2023-02-02T10:52:11.162Z,0.22
2023-02-02T10:55:53.768Z,0.30
2023-02-02T10:59:32.403Z,0.25
2023-02-02T11:03:04.709Z,0.20
2023-02-02T11:06:59.796Z,0.40
2023-02-02T11:10:34.660Z,0.30
2023-02-02T11:14:10.415Z,0.40
2023-02-02T11:17:42.983Z,0.20
2023-02-02T11:21:24.501Z,0.20
2023-02-02T11:24:59.577Z,0.50
2023-02-02T11:28:35.602Z,0.40
2023-02-02T11:32:35.033Z,0.32
2023-02-02T11:36:21.935Z,0.10
2023-02-02T11:39:54.199Z,0.50
2023-02-02T11:43:41.247Z,0.20
2023-02-02T11:47:26.771Z,0.50
2023-02-02T11:51:00.890Z,0.10
2023-02-02T11:54:36.081Z,0.10
2023-02-02T11:58:27.496Z,0.20
2023-02-02T12:02:17.884Z,0.10
2023-02-02T12:05:50.339Z,0.20
2023-02-02T12:09:24.886Z,0.32
2023-02-02T12:13:00.921Z,0.10
2023-02-02T12:16:49.691Z,0.20
2023-02-02T12:20:52.004Z,0.28
2023-02-02T12:24:33.496Z,0.40
2023-02-02T12:28:28.835Z,0.40
2023-02-02T12:32:07.534Z,0.45
2023-02-02T12:36:18.297Z,0.30
2023-02-02T12:40:06.675Z,0.50
2023-02-02T12:43:46.231Z,0.63
2023-02-02T12:47:29.428Z,0.22
2023-02-02T12:51:20.148Z,0.30
2023-02-02T12:55:02.550Z,0.23
2023-02-02T12:59:11.514Z,0.40
2023-02-02T13:03:11.191Z,0.40
2023-02-02T13:07:22.052Z,0.30
2023-02-02T13:11:03.371Z,0.20
2023-02-02T13:14:43.771Z,0.30
2023-02-02T13:18:24.185Z,0.80
2023-02-02T13:21:59.316Z,0.28
2023-02-02T13:25:37.382Z,0.35
2023-02-02T13:29:27.903Z,0.40
2023-02-02T13:33:05.597Z,0.30
2023-02-02T13:36:44.419Z,0.50
2023-02-02T13:40:50.337Z,0.35
2023-02-02T13:44:38.579Z,0.50
2023-02-02T13:48:22.689Z,0.38
2023-02-02T13:52:17.681Z,0.22
2023-02-02T13:56:04.386Z,0.30
2023-02-02T13:59:57.929Z,0.30
2023-02-02T14:03:38.877Z,1.00
2023-02-02T14:07:10.849Z,0.40
2023-02-02T14:10:56.512Z,0.53
2023-02-02T14:14:32.669Z,0.40
2023-02-02T14:18:05.250Z,0.10
2023-02-02T14:21:37.041Z,0.47
2023-02-02T14:25:29.400Z,1.13
2023-02-02T14:29:01.372Z,2.88
2023-02-02T14:32:42.238Z,0.37
2023-02-02T14:36:16.940Z,0.90
2023-02-02T14:39:51.672Z,0.50
2023-02-02T14:43:45.767Z,0.57
2023-02-02T14:47:46.205Z,0.30
2023-02-02T14:51:22.402Z,0.30
2023-02-02T14:54:55.909Z,0.25
2023-02-02T14:58:47.772Z,0.77
2023-02-02T15:02:35.248Z,0.93
2023-02-02T15:06:27.023Z,0.70
2023-02-02T15:09:59.548Z,0.50
2023-02-02T15:13:37.655Z,0.40
2023-02-02T15:17:40.927Z,0.30
2023-02-02T15:21:17.015Z,0.52
2023-02-02T15:24:50.654Z,0.40
2023-02-02T15:28:35.859Z,0.60
2023-02-02T15:32:16.649Z,0.52
2023-02-02T15:35:49.608Z,0.50
2023-02-02T15:39:27.506Z,0.50
2023-02-02T15:43:06.622Z,0.50
2023-02-02T15:46:39.480Z,0.50
2023-02-02T15:50:22.810Z,0.38
2023-02-02T15:53:54.968Z,0.17
2023-02-02T15:57:35.647Z,0.40
2023-02-02T16:01:17.240Z,0.33
2023-02-02T16:04:49.449Z,0.30
2023-02-02T16:08:27.557Z,0.30
2023-02-02T16:11:59.486Z,0.73
2023-02-02T16:15:32.943Z,0.70
2023-02-02T16:19:22.282Z,0.88
2023-02-02T16:23:02.517Z,0.50
2023-02-02T16:26:36.021Z,0.47
2023-02-02T16:30:10.082Z,0.73
2023-02-02T16:33:44.050Z,0.40
2023-02-02T16:37:27.587Z,1.00
2023-02-02T16:41:11.471Z,2.15
2023-02-02T16:44:44.680Z,1.00
2023-02-02T16:48:31.134Z,0.90
2023-02-02T16:52:18.403Z,0.98
2023-02-02T16:55:51.710Z,1.17
2023-02-02T16:59:39.348Z,0.80
2023-02-02T17:03:16.355Z,0.63
2023-02-02T17:06:52.675Z,0.90
2023-02-02T17:10:31.073Z,0.80
2023-02-02T17:14:20.057Z,1.30
2023-02-02T17:17:53.211Z,0.93
2023-02-02T17:21:26.050Z,0.98
2023-02-02T17:24:58.925Z,1.00
2023-02-02T17:28:31.527Z,1.33
2023-02-02T17:32:04.359Z,0.80
2023-02-02T17:35:52.689Z,0.80
2023-02-02T17:39:26.261Z,1.30
2023-02-02T17:42:58.396Z,0.70
2023-02-02T17:46:31.118Z,0.70
2023-02-02T17:50:03.872Z,0.57
2023-02-02T17:53:36.071Z,0.70
2023-02-02T17:57:09.328Z,0.77
2023-02-02T18:00:42.095Z,1.03
2023-02-02T18:04:15.403Z,1.42
2023-02-02T18:07:47.677Z,1.33
2023-02-02T18:11:20.057Z,1.07
2023-02-02T18:14:52.545Z,0.73
2023-02-02T18:18:24.972Z,0.75
2023-02-02T18:21:58.123Z,0.98
2023-02-02T18:25:33.205Z,0.70
2023-02-02T18:29:05.568Z,1.27
2023-02-02T18:32:39.168Z,0.50
2023-02-02T18:36:18.989Z,1.27
2023-02-02T18:39:51.938Z,1.05
2023-02-02T18:43:23.860Z,0.60
2023-02-02T18:46:56.123Z,0.40
2023-02-02T18:50:28.433Z,0.80
2023-02-02T18:54:00.741Z,0.98
2023-02-02T18:57:32.846Z,0.82
2023-02-02T19:01:15.844Z,1.00
2023-02-02T19:05:07.035Z,1.20
2023-02-02T19:08:39.001Z,0.75
2023-02-02T19:12:15.331Z,1.37
2023-02-02T19:15:49.536Z,1.10
2023-02-02T19:19:25.558Z,1.50
2023-02-02T19:23:10.013Z,1.07
2023-02-02T19:26:46.384Z,1.35
2023-02-02T19:30:20.645Z,2.17
2023-02-02T19:33:53.048Z,3.92
2023-02-02T19:37:30.710Z,7.20
2023-02-02T19:41:02.884Z,3.42
2023-02-02T19:44:35.144Z,1.08
2023-02-02T19:48:34.804Z,0.60
2023-02-02T19:52:18.360Z,1.08
2023-02-02T19:55:51.596Z,0.70
2023-02-02T19:59:26.397Z,0.70
2023-02-02T20:03:05.226Z,0.82
2023-02-02T20:06:49.142Z,0.43
2023-02-02T20:10:40.073Z,0.63
2023-02-02T20:14:18.837Z,1.00
2023-02-02T20:17:51.707Z,1.13
2023-02-02T20:21:34.916Z,1.25
2023-02-02T20:25:09.061Z,1.57
2023-02-02T20:28:44.838Z,2.22
2023-02-02T20:32:22.965Z,1.02
2023-02-02T20:35:56.263Z,1.23
2023-02-02T20:39:36.653Z,1.25
2023-02-02T20:43:08.949Z,1.05
2023-02-02T20:46:40.869Z,0.68
2023-02-02T20:50:15.594Z,1.13
2023-02-02T20:53:48.041Z,0.95
2023-02-02T20:57:20.193Z,1.20
2023-02-02T21:00:52.580Z,1.30
2023-02-02T21:04:25.097Z,0.93
2023-02-02T21:07:56.870Z,1.85
2023-02-02T21:11:29.162Z,0.67
2023-02-02T21:15:03.962Z,0.98
2023-02-02T21:18:36.447Z,1.00
2023-02-02T21:22:08.268Z,1.60
2023-02-02T21:25:40.457Z,1.37
2023-02-02T21:29:12.954Z,1.67
2023-02-02T21:32:44.799Z,0.35
2023-02-02T21:36:21.038Z,1.00
2023-02-02T21:39:58.049Z,0.80
2023-02-02T21:43:32.136Z,1.10
2023-02-02T21:47:25.296Z,0.87
2023-02-02T21:50:57.888Z,1.20
2023-02-02T21:54:36.692Z,1.35
2023-02-02T21:58:25.787Z,1.00
2023-02-02T22:01:57.676Z,1.67
2023-02-02T22:05:35.731Z,0.50
2023-02-02T22:09:18.986Z,0.40
2023-02-02T22:12:51.811Z,0.80
2023-02-02T22:16:23.934Z,0.55
2023-02-02T22:20:07.789Z,1.20
2023-02-02T22:23:39.772Z,0.77
2023-02-02T22:27:18.632Z,0.68
2023-02-02T22:30:52.410Z,1.08
2023-02-02T22:34:24.616Z,1.60
2023-02-02T22:37:56.392Z,0.77
2023-02-02T22:41:28.574Z,1.75
2023-02-02T22:45:00.653Z,0.68
2023-02-02T22:48:32.457Z,1.10
2023-02-02T22:52:04.853Z,1.52
2023-02-02T22:55:36.742Z,1.55
2023-02-02T22:59:09.138Z,1.83
2023-02-02T23:02:41.871Z,2.00
2023-02-02T23:06:14.015Z,1.25
2023-02-02T23:09:46.493Z,1.05
2023-02-02T23:13:18.471Z,1.67
2023-02-02T23:16:50.776Z,1.83
2023-02-02T23:20:23.915Z,0.65
2023-02-02T23:23:56.047Z,0.70
2023-02-02T23:27:27.939Z,2.03
2023-02-02T23:31:00.219Z,1.60
2023-02-02T23:34:32.905Z,2.37
2023-02-02T23:38:04.854Z,2.10
2023-02-02T23:41:36.879Z,0.98
2023-02-02T23:45:09.341Z,2.50
2023-02-02T23:48:41.865Z,1.73
2023-02-02T23:52:14.028Z,1.00
2023-02-02T23:55:46.606Z,1.90
2023-02-02T23:59:19.019Z,2.13
